sensor_id;sensor_type;location;lat;lon;timestamp;P1;durP1;ratioP1;P2;durP2;ratioP2
17947;SDS011;9099;47.958;11.366;2023-03-01T00:01:11;16.70;;;12.93;;
17947;SDS011;9099;47.958;11.366;2023-03-01T00:03:40;17.60;;;12.73;;
17947;SDS011;9099;47.958;11.366;2023-03-01T00:06:09;17.53;;;12.50;;
17947;SDS011;9099;47.958;11.366;2023-03-01T00:08:37;17.83;;;13.27;;
17947;SDS011;9099;47.958;11.366;2023-03-01T00:11:04;15.60;;;12.17;;
17947;SDS011;9099;47.958;11.366;2023-03-01T00:13:33;16.80;;;13.33;;
17947;SDS011;9099;47.958;11.366;2023-03-01T00:16:02;17.93;;;13.13;;
17947;SDS011;9099;47.958;11.366;2023-03-01T00:18:29;17.10;;;13.27;;
17947;SDS011;9099;47.958;11.366;2023-03-01T00:20:56;16.80;;;12.87;;
17947;SDS011;9099;47.958;11.366;2023-03-01T00:23:24;16.23;;;12.90;;
17947;SDS011;9099;47.958;11.366;2023-03-01T00:25:51;16.30;;;13.30;;
17947;SDS011;9099;47.958;11.366;2023-03-01T00:28:19;15.40;;;12.33;;
17947;SDS011;9099;47.958;11.366;2023-03-01T00:30:46;15.43;;;12.53;;
17947;SDS011;9099;47.958;11.366;2023-03-01T00:33:13;19.57;;;13.63;;
17947;SDS011;9099;47.958;11.366;2023-03-01T00:35:40;15.30;;;12.47;;
17947;SDS011;9099;47.958;11.366;2023-03-01T00:38:07;17.27;;;13.37;;
17947;SDS011;9099;47.958;11.366;2023-03-01T00:40:35;17.37;;;13.27;;
17947;SDS011;9099;47.958;11.366;2023-03-01T00:43:03;16.23;;;12.60;;
17947;SDS011;9099;47.958;11.366;2023-03-01T00:45:30;18.70;;;13.47;;
17947;SDS011;9099;47.958;11.366;2023-03-01T00:47:58;17.33;;;12.63;;
17947;SDS011;9099;47.958;11.366;2023-03-01T00:50:25;17.47;;;13.17;;
17947;SDS011;9099;47.958;11.366;2023-03-01T00:52:52;16.50;;;12.53;;
17947;SDS011;9099;47.958;11.366;2023-03-01T00:55:19;17.30;;;12.57;;
17947;SDS011;9099;47.958;11.366;2023-03-01T00:57:48;17.13;;;13.80;;
17947;SDS011;9099;47.958;11.366;2023-03-01T01:00:15;18.20;;;12.83;;
17947;SDS011;9099;47.958;11.366;2023-03-01T01:02:42;16.83;;;12.73;;
17947;SDS011;9099;47.958;11.366;2023-03-01T01:05:09;17.37;;;13.50;;
17947;SDS011;9099;47.958;11.366;2023-03-01T01:07:36;16.13;;;13.03;;
17947;SDS011;9099;47.958;11.366;2023-03-01T01:10:03;16.73;;;13.03;;
17947;SDS011;9099;47.958;11.366;2023-03-01T01:12:31;18.50;;;13.63;;
17947;SDS011;9099;47.958;11.366;2023-03-01T01:14:59;18.30;;;13.73;;
17947;SDS011;9099;47.958;11.366;2023-03-01T01:17:26;18.23;;;13.97;;
17947;SDS011;9099;47.958;11.366;2023-03-01T01:19:53;18.57;;;13.80;;
17947;SDS011;9099;47.958;11.366;2023-03-01T01:22:20;19.47;;;13.07;;
17947;SDS011;9099;47.958;11.366;2023-03-01T01:24:46;20.27;;;14.37;;
17947;SDS011;9099;47.958;11.366;2023-03-01T01:27:13;15.33;;;12.83;;
17947;SDS011;9099;47.958;11.366;2023-03-01T01:29:40;17.63;;;13.40;;
17947;SDS011;9099;47.958;11.366;2023-03-01T01:32:09;17.90;;;13.37;;
17947;SDS011;9099;47.958;11.366;2023-03-01T01:34:36;16.63;;;12.87;;
17947;SDS011;9099;47.958;11.366;2023-03-01T01:37:02;19.47;;;14.27;;
17947;SDS011;9099;47.958;11.366;2023-03-01T01:39:32;18.53;;;13.97;;
17947;SDS011;9099;47.958;11.366;2023-03-01T01:41:59;17.93;;;13.33;;
17947;SDS011;9099;47.958;11.366;2023-03-01T01:44:26;18.40;;;13.67;;
17947;SDS011;9099;47.958;11.366;2023-03-01T01:46:55;17.97;;;13.80;;
17947;SDS011;9099;47.958;11.366;2023-03-01T01:49:31;18.47;;;13.93;;
17947;SDS011;9099;47.958;11.366;2023-03-01T01:52:05;17.20;;;13.43;;
17947;SDS011;9099;47.958;11.366;2023-03-01T01:54:40;19.27;;;13.83;;
17947;SDS011;9099;47.958;11.366;2023-03-01T01:57:11;16.67;;;13.23;;
17947;SDS011;9099;47.958;11.366;2023-03-01T01:59:41;17.87;;;13.50;;
17947;SDS011;9099;47.958;11.366;2023-03-01T02:02:11;19.47;;;14.17;;
17947;SDS011;9099;47.958;11.366;2023-03-01T02:04:40;17.77;;;14.23;;
17947;SDS011;9099;47.958;11.366;2023-03-01T02:07:10;16.60;;;12.97;;
17947;SDS011;9099;47.958;11.366;2023-03-01T02:09:42;15.83;;;13.20;;
17947;SDS011;9099;47.958;11.366;2023-03-01T02:12:12;16.97;;;12.87;;
17947;SDS011;9099;47.958;11.366;2023-03-01T02:14:39;20.53;;;13.90;;
17947;SDS011;9099;47.958;11.366;2023-03-01T02:17:06;20.10;;;14.30;;
17947;SDS011;9099;47.958;11.366;2023-03-01T02:19:41;18.27;;;14.03;;
17947;SDS011;9099;47.958;11.366;2023-03-01T02:22:18;19.73;;;13.80;;
17947;SDS011;9099;47.958;11.366;2023-03-01T02:24:50;17.03;;;12.23;;
17947;SDS011;9099;47.958;11.366;2023-03-01T02:27:29;19.30;;;14.47;;
17947;SDS011;9099;47.958;11.366;2023-03-01T02:30:04;19.00;;;14.40;;
17947;SDS011;9099;47.958;11.366;2023-03-01T02:32:32;17.33;;;13.43;;
17947;SDS011;9099;47.958;11.366;2023-03-01T02:34:59;18.60;;;13.30;;
17947;SDS011;9099;47.958;11.366;2023-03-01T02:37:26;16.27;;;13.00;;
17947;SDS011;9099;47.958;11.366;2023-03-01T02:39:55;17.83;;;13.87;;
17947;SDS011;9099;47.958;11.366;2023-03-01T02:42:26;18.87;;;13.83;;
17947;SDS011;9099;47.958;11.366;2023-03-01T02:44:57;17.47;;;13.30;;
17947;SDS011;9099;47.958;11.366;2023-03-01T02:47:25;17.27;;;13.77;;
17947;SDS011;9099;47.958;11.366;2023-03-01T02:49:52;15.80;;;12.63;;
17947;SDS011;9099;47.958;11.366;2023-03-01T02:52:26;18.70;;;13.93;;
17947;SDS011;9099;47.958;11.366;2023-03-01T02:55:00;19.23;;;13.17;;
17947;SDS011;9099;47.958;11.366;2023-03-01T02:57:29;16.40;;;13.53;;
17947;SDS011;9099;47.958;11.366;2023-03-01T02:59:59;19.00;;;13.53;;
17947;SDS011;9099;47.958;11.366;2023-03-01T03:02:34;16.47;;;13.27;;
17947;SDS011;9099;47.958;11.366;2023-03-01T03:05:05;17.03;;;12.47;;
17947;SDS011;9099;47.958;11.366;2023-03-01T03:07:34;18.23;;;13.47;;
17947;SDS011;9099;47.958;11.366;2023-03-01T03:10:02;17.57;;;13.17;;
17947;SDS011;9099;47.958;11.366;2023-03-01T03:12:32;17.27;;;13.53;;
17947;SDS011;9099;47.958;11.366;2023-03-01T03:14:58;19.77;;;13.37;;
17947;SDS011;9099;47.958;11.366;2023-03-01T03:17:25;19.83;;;14.20;;
17947;SDS011;9099;47.958;11.366;2023-03-01T03:19:53;18.90;;;12.73;;
17947;SDS011;9099;47.958;11.366;2023-03-01T03:22:20;16.80;;;13.63;;
17947;SDS011;9099;47.958;11.366;2023-03-01T03:24:47;18.50;;;13.77;;
17947;SDS011;9099;47.958;11.366;2023-03-01T03:27:14;17.97;;;13.70;;
17947;SDS011;9099;47.958;11.366;2023-03-01T03:29:40;18.50;;;13.90;;
17947;SDS011;9099;47.958;11.366;2023-03-01T03:32:07;18.47;;;13.60;;
17947;SDS011;9099;47.958;11.366;2023-03-01T03:34:34;17.37;;;13.07;;
17947;SDS011;9099;47.958;11.366;2023-03-01T03:37:02;17.93;;;13.13;;
17947;SDS011;9099;47.958;11.366;2023-03-01T03:39:49;17.10;;;13.17;;
17947;SDS011;9099;47.958;11.366;2023-03-01T03:42:19;17.83;;;13.80;;
17947;SDS011;9099;47.958;11.366;2023-03-01T03:44:46;15.57;;;12.50;;
17947;SDS011;9099;47.958;11.366;2023-03-01T03:47:13;17.97;;;13.87;;
17947;SDS011;9099;47.958;11.366;2023-03-01T03:49:40;17.33;;;13.67;;
17947;SDS011;9099;47.958;11.366;2023-03-01T03:52:09;17.20;;;13.17;;
17947;SDS011;9099;47.958;11.366;2023-03-01T03:54:38;16.73;;;12.53;;
17947;SDS011;9099;47.958;11.366;2023-03-01T03:57:05;17.37;;;14.20;;
17947;SDS011;9099;47.958;11.366;2023-03-01T03:59:33;17.60;;;13.43;;
17947;SDS011;9099;47.958;11.366;2023-03-01T04:01:59;20.57;;;14.40;;
17947;SDS011;9099;47.958;11.366;2023-03-01T04:04:26;17.23;;;13.83;;
17947;SDS011;9099;47.958;11.366;2023-03-01T04:06:53;17.90;;;13.53;;
17947;SDS011;9099;47.958;11.366;2023-03-01T04:09:21;16.10;;;13.80;;
17947;SDS011;9099;47.958;11.366;2023-03-01T04:11:48;16.43;;;13.30;;
17947;SDS011;9099;47.958;11.366;2023-03-01T04:14:15;16.83;;;13.10;;
17947;SDS011;9099;47.958;11.366;2023-03-01T04:16:42;17.00;;;13.20;;
17947;SDS011;9099;47.958;11.366;2023-03-01T04:19:08;18.47;;;13.90;;
17947;SDS011;9099;47.958;11.366;2023-03-01T04:21:35;17.93;;;13.03;;
17947;SDS011;9099;47.958;11.366;2023-03-01T04:24:02;16.83;;;12.70;;
17947;SDS011;9099;47.958;11.366;2023-03-01T04:26:31;17.87;;;13.53;;
17947;SDS011;9099;47.958;11.366;2023-03-01T04:28:58;21.93;;;14.93;;
17947;SDS011;9099;47.958;11.366;2023-03-01T04:31:24;16.47;;;13.30;;
17947;SDS011;9099;47.958;11.366;2023-03-01T04:33:52;16.27;;;13.60;;
17947;SDS011;9099;47.958;11.366;2023-03-01T04:36:21;18.97;;;13.80;;
17947;SDS011;9099;47.958;11.366;2023-03-01T04:38:49;17.70;;;14.17;;
17947;SDS011;9099;47.958;11.366;2023-03-01T04:41:17;16.37;;;13.20;;
17947;SDS011;9099;47.958;11.366;2023-03-01T04:43:46;19.97;;;14.63;;
17947;SDS011;9099;47.958;11.366;2023-03-01T04:46:14;18.77;;;13.70;;
17947;SDS011;9099;47.958;11.366;2023-03-01T04:48:43;17.70;;;14.27;;
17947;SDS011;9099;47.958;11.366;2023-03-01T04:51:10;17.87;;;12.80;;
17947;SDS011;9099;47.958;11.366;2023-03-01T04:53:39;16.93;;;13.33;;
17947;SDS011;9099;47.958;11.366;2023-03-01T04:56:06;17.37;;;13.13;;
17947;SDS011;9099;47.958;11.366;2023-03-01T04:58:33;19.37;;;14.67;;
17947;SDS011;9099;47.958;11.366;2023-03-01T05:01:01;19.47;;;13.90;;
17947;SDS011;9099;47.958;11.366;2023-03-01T05:03:40;18.60;;;13.80;;
17947;SDS011;9099;47.958;11.366;2023-03-01T05:06:08;19.87;;;13.73;;
17947;SDS011;9099;47.958;11.366;2023-03-01T05:08:35;17.87;;;13.87;;
17947;SDS011;9099;47.958;11.366;2023-03-01T05:11:03;20.30;;;13.23;;
17947;SDS011;9099;47.958;11.366;2023-03-01T05:13:30;18.77;;;13.87;;
17947;SDS011;9099;47.958;11.366;2023-03-01T05:15:58;19.77;;;14.07;;
17947;SDS011;9099;47.958;11.366;2023-03-01T05:18:28;19.33;;;14.30;;
17947;SDS011;9099;47.958;11.366;2023-03-01T05:20:56;19.50;;;14.37;;
17947;SDS011;9099;47.958;11.366;2023-03-01T05:23:29;19.53;;;13.83;;
17947;SDS011;9099;47.958;11.366;2023-03-01T05:25:57;18.13;;;14.20;;
17947;SDS011;9099;47.958;11.366;2023-03-01T05:28:24;19.83;;;15.03;;
17947;SDS011;9099;47.958;11.366;2023-03-01T05:30:53;20.27;;;15.37;;
17947;SDS011;9099;47.958;11.366;2023-03-01T05:33:19;24.37;;;14.93;;
17947;SDS011;9099;47.958;11.366;2023-03-01T05:35:49;17.67;;;13.03;;
17947;SDS011;9099;47.958;11.366;2023-03-01T05:38:17;18.17;;;14.40;;
17947;SDS011;9099;47.958;11.366;2023-03-01T05:40:44;21.13;;;15.03;;
17947;SDS011;9099;47.958;11.366;2023-03-01T05:43:14;19.47;;;14.77;;
17947;SDS011;9099;47.958;11.366;2023-03-01T05:45:43;17.50;;;13.90;;
17947;SDS011;9099;47.958;11.366;2023-03-01T05:48:10;17.90;;;14.10;;
17947;SDS011;9099;47.958;11.366;2023-03-01T05:50:38;19.03;;;14.60;;
17947;SDS011;9099;47.958;11.366;2023-03-01T05:53:09;21.67;;;13.40;;
17947;SDS011;9099;47.958;11.366;2023-03-01T05:55:37;21.57;;;15.37;;
17947;SDS011;9099;47.958;11.366;2023-03-01T05:58:05;19.50;;;14.63;;
17947;SDS011;9099;47.958;11.366;2023-03-01T06:00:33;18.83;;;14.13;;
17947;SDS011;9099;47.958;11.366;2023-03-01T06:03:01;20.80;;;14.60;;
17947;SDS011;9099;47.958;11.366;2023-03-01T06:05:28;16.57;;;13.13;;
17947;SDS011;9099;47.958;11.366;2023-03-01T06:07:58;19.63;;;14.40;;
17947;SDS011;9099;47.958;11.366;2023-03-01T06:10:26;19.50;;;14.37;;
17947;SDS011;9099;47.958;11.366;2023-03-01T06:12:53;19.23;;;14.70;;
17947;SDS011;9099;47.958;11.366;2023-03-01T06:15:21;20.93;;;15.30;;
17947;SDS011;9099;47.958;11.366;2023-03-01T06:17:48;20.10;;;14.43;;
17947;SDS011;9099;47.958;11.366;2023-03-01T06:20:15;22.57;;;14.27;;
17947;SDS011;9099;47.958;11.366;2023-03-01T06:22:44;18.47;;;14.77;;
17947;SDS011;9099;47.958;11.366;2023-03-01T06:25:12;19.40;;;13.73;;
17947;SDS011;9099;47.958;11.366;2023-03-01T06:27:41;21.13;;;14.80;;
17947;SDS011;9099;47.958;11.366;2023-03-01T06:30:09;23.83;;;16.17;;
17947;SDS011;9099;47.958;11.366;2023-03-01T06:32:37;18.93;;;14.70;;
17947;SDS011;9099;47.958;11.366;2023-03-01T06:35:07;19.50;;;14.57;;
17947;SDS011;9099;47.958;11.366;2023-03-01T06:37:35;19.10;;;14.17;;
17947;SDS011;9099;47.958;11.366;2023-03-01T06:40:02;21.60;;;15.27;;
17947;SDS011;9099;47.958;11.366;2023-03-01T06:42:33;20.90;;;14.93;;
17947;SDS011;9099;47.958;11.366;2023-03-01T06:45:01;19.13;;;14.77;;
17947;SDS011;9099;47.958;11.366;2023-03-01T06:47:28;19.80;;;14.50;;
17947;SDS011;9099;47.958;11.366;2023-03-01T06:49:55;20.37;;;14.50;;
17947;SDS011;9099;47.958;11.366;2023-03-01T06:52:22;20.27;;;13.97;;
17947;SDS011;9099;47.958;11.366;2023-03-01T06:54:49;19.40;;;14.50;;
17947;SDS011;9099;47.958;11.366;2023-03-01T06:57:15;19.10;;;15.20;;
17947;SDS011;9099;47.958;11.366;2023-03-01T06:59:42;19.70;;;14.53;;
17947;SDS011;9099;47.958;11.366;2023-03-01T07:02:11;19.30;;;15.60;;
17947;SDS011;9099;47.958;11.366;2023-03-01T07:04:38;20.33;;;15.53;;
17947;SDS011;9099;47.958;11.366;2023-03-01T07:07:05;21.90;;;15.67;;
17947;SDS011;9099;47.958;11.366;2023-03-01T07:09:32;19.90;;;14.87;;
17947;SDS011;9099;47.958;11.366;2023-03-01T07:11:59;21.63;;;14.93;;
17947;SDS011;9099;47.958;11.366;2023-03-01T07:14:26;19.83;;;14.33;;
17947;SDS011;9099;47.958;11.366;2023-03-01T07:16:53;21.07;;;15.10;;
17947;SDS011;9099;47.958;11.366;2023-03-01T07:19:22;23.53;;;15.80;;
17947;SDS011;9099;47.958;11.366;2023-03-01T07:21:49;23.43;;;15.63;;
17947;SDS011;9099;47.958;11.366;2023-03-01T07:24:16;22.60;;;16.30;;
17947;SDS011;9099;47.958;11.366;2023-03-01T07:26:43;22.03;;;16.10;;
17947;SDS011;9099;47.958;11.366;2023-03-01T07:29:10;20.70;;;16.13;;
17947;SDS011;9099;47.958;11.366;2023-03-01T07:31:37;25.60;;;16.67;;
17947;SDS011;9099;47.958;11.366;2023-03-01T07:34:04;24.23;;;16.13;;
17947;SDS011;9099;47.958;11.366;2023-03-01T07:36:32;25.90;;;15.97;;
17947;SDS011;9099;47.958;11.366;2023-03-01T07:38:59;23.07;;;16.67;;
17947;SDS011;9099;47.958;11.366;2023-03-01T07:41:28;22.93;;;16.17;;
17947;SDS011;9099;47.958;11.366;2023-03-01T07:43:55;22.90;;;16.37;;
17947;SDS011;9099;47.958;11.366;2023-03-01T07:46:22;23.40;;;17.03;;
17947;SDS011;9099;47.958;11.366;2023-03-01T07:48:48;23.57;;;16.30;;
17947;SDS011;9099;47.958;11.366;2023-03-01T07:51:15;21.27;;;15.90;;
17947;SDS011;9099;47.958;11.366;2023-03-01T07:53:44;23.73;;;16.43;;
17947;SDS011;9099;47.958;11.366;2023-03-01T07:56:12;22.77;;;16.07;;
17947;SDS011;9099;47.958;11.366;2023-03-01T07:58:42;24.10;;;16.40;;
17947;SDS011;9099;47.958;11.366;2023-03-01T08:01:10;23.97;;;16.77;;
17947;SDS011;9099;47.958;11.366;2023-03-01T08:03:38;25.73;;;17.40;;
17947;SDS011;9099;47.958;11.366;2023-03-01T08:06:06;24.47;;;16.53;;
17947;SDS011;9099;47.958;11.366;2023-03-01T08:08:34;22.60;;;16.53;;
17947;SDS011;9099;47.958;11.366;2023-03-01T08:11:03;22.03;;;16.90;;
17947;SDS011;9099;47.958;11.366;2023-03-01T08:13:31;23.83;;;16.00;;
17947;SDS011;9099;47.958;11.366;2023-03-01T08:16:02;24.27;;;16.10;;
17947;SDS011;9099;47.958;11.366;2023-03-01T08:18:29;23.47;;;17.17;;
17947;SDS011;9099;47.958;11.366;2023-03-01T08:21:00;24.17;;;17.37;;
17947;SDS011;9099;47.958;11.366;2023-03-01T08:23:28;27.30;;;17.73;;
17947;SDS011;9099;47.958;11.366;2023-03-01T08:25:55;21.17;;;15.63;;
17947;SDS011;9099;47.958;11.366;2023-03-01T08:28:30;23.53;;;16.47;;
17947;SDS011;9099;47.958;11.366;2023-03-01T08:30:56;20.33;;;15.30;;
17947;SDS011;9099;47.958;11.366;2023-03-01T08:33:23;23.30;;;16.63;;
17947;SDS011;9099;47.958;11.366;2023-03-01T08:35:50;21.03;;;15.53;;
17947;SDS011;9099;47.958;11.366;2023-03-01T08:38:17;24.60;;;16.33;;
17947;SDS011;9099;47.958;11.366;2023-03-01T08:40:44;23.57;;;16.60;;
17947;SDS011;9099;47.958;11.366;2023-03-01T08:43:12;22.23;;;16.80;;
17947;SDS011;9099;47.958;11.366;2023-03-01T08:45:38;22.33;;;16.80;;
17947;SDS011;9099;47.958;11.366;2023-03-01T08:48:05;24.47;;;16.20;;
17947;SDS011;9099;47.958;11.366;2023-03-01T08:50:32;22.37;;;16.50;;
17947;SDS011;9099;47.958;11.366;2023-03-01T08:52:59;20.43;;;16.47;;
17947;SDS011;9099;47.958;11.366;2023-03-01T08:55:26;27.13;;;17.60;;
17947;SDS011;9099;47.958;11.366;2023-03-01T08:57:53;21.27;;;15.83;;
17947;SDS011;9099;47.958;11.366;2023-03-01T09:00:21;19.93;;;15.57;;
17947;SDS011;9099;47.958;11.366;2023-03-01T09:02:48;19.77;;;15.00;;
17947;SDS011;9099;47.958;11.366;2023-03-01T09:05:15;20.37;;;15.30;;
17947;SDS011;9099;47.958;11.366;2023-03-01T09:07:42;19.10;;;14.83;;
17947;SDS011;9099;47.958;11.366;2023-03-01T09:10:09;20.67;;;15.63;;
17947;SDS011;9099;47.958;11.366;2023-03-01T09:12:37;21.43;;;16.43;;
17947;SDS011;9099;47.958;11.366;2023-03-01T09:15:04;21.07;;;16.13;;
17947;SDS011;9099;47.958;11.366;2023-03-01T09:17:33;20.03;;;15.90;;
17947;SDS011;9099;47.958;11.366;2023-03-01T09:19:59;21.07;;;16.03;;
17947;SDS011;9099;47.958;11.366;2023-03-01T09:22:26;21.43;;;15.47;;
17947;SDS011;9099;47.958;11.366;2023-03-01T09:24:53;20.63;;;16.27;;
17947;SDS011;9099;47.958;11.366;2023-03-01T09:27:21;19.07;;;15.03;;
17947;SDS011;9099;47.958;11.366;2023-03-01T09:29:49;21.30;;;16.20;;
17947;SDS011;9099;47.958;11.366;2023-03-01T09:32:16;20.80;;;15.90;;
17947;SDS011;9099;47.958;11.366;2023-03-01T09:34:44;19.20;;;15.07;;
17947;SDS011;9099;47.958;11.366;2023-03-01T09:37:27;22.23;;;16.60;;
17947;SDS011;9099;47.958;11.366;2023-03-01T09:42:22;23.90;;;16.17;;
17947;SDS011;9099;47.958;11.366;2023-03-01T09:44:51;21.87;;;15.53;;
17947;SDS011;9099;47.958;11.366;2023-03-01T09:47:22;22.00;;;14.47;;
17947;SDS011;9099;47.958;11.366;2023-03-01T09:49:57;21.30;;;15.17;;
17947;SDS011;9099;47.958;11.366;2023-03-01T09:52:29;19.33;;;14.83;;
17947;SDS011;9099;47.958;11.366;2023-03-01T09:55:05;16.80;;;13.77;;
17947;SDS011;9099;47.958;11.366;2023-03-01T09:57:36;16.83;;;12.70;;
17947;SDS011;9099;47.958;11.366;2023-03-01T10:00:10;17.30;;;14.33;;
17947;SDS011;9099;47.958;11.366;2023-03-01T10:02:45;20.20;;;13.50;;
17947;SDS011;9099;47.958;11.366;2023-03-01T10:05:21;19.97;;;13.67;;
17947;SDS011;9099;47.958;11.366;2023-03-01T10:08:00;17.70;;;13.80;;
17947;SDS011;9099;47.958;11.366;2023-03-01T10:10:41;18.33;;;13.60;;
17947;SDS011;9099;47.958;11.366;2023-03-01T10:13:13;16.00;;;13.67;;
17947;SDS011;9099;47.958;11.366;2023-03-01T10:15:47;19.33;;;13.83;;
17947;SDS011;9099;47.958;11.366;2023-03-01T10:18:20;16.33;;;12.23;;
17947;SDS011;9099;47.958;11.366;2023-03-01T10:20:52;16.30;;;12.77;;
17947;SDS011;9099;47.958;11.366;2023-03-01T10:23:22;19.23;;;14.87;;
17947;SDS011;9099;47.958;11.366;2023-03-01T10:25:57;14.60;;;12.13;;
17947;SDS011;9099;47.958;11.366;2023-03-01T10:28:37;18.00;;;13.43;;
17947;SDS011;9099;47.958;11.366;2023-03-01T10:31:13;19.13;;;13.53;;
17947;SDS011;9099;47.958;11.366;2023-03-01T10:33:44;18.90;;;13.87;;
17947;SDS011;9099;47.958;11.366;2023-03-01T10:36:14;22.47;;;14.87;;
17947;SDS011;9099;47.958;11.366;2023-03-01T10:38:48;20.93;;;14.83;;
17947;SDS011;9099;47.958;11.366;2023-03-01T10:41:17;19.60;;;14.93;;
17947;SDS011;9099;47.958;11.366;2023-03-01T10:43:45;23.43;;;16.07;;
17947;SDS011;9099;47.958;11.366;2023-03-01T10:46:21;47.70;;;24.47;;
17947;SDS011;9099;47.958;11.366;2023-03-01T10:49:07;23.10;;;17.03;;
17947;SDS011;9099;47.958;11.366;2023-03-01T10:51:42;40.77;;;23.03;;
17947;SDS011;9099;47.958;11.366;2023-03-01T10:54:15;54.70;;;29.63;;
17947;SDS011;9099;47.958;11.366;2023-03-01T10:56:48;32.33;;;19.97;;
17947;SDS011;9099;47.958;11.366;2023-03-01T10:59:27;44.73;;;26.83;;
17947;SDS011;9099;47.958;11.366;2023-03-01T11:02:03;25.10;;;16.43;;
17947;SDS011;9099;47.958;11.366;2023-03-01T11:04:54;30.23;;;20.13;;
17947;SDS011;9099;47.958;11.366;2023-03-01T11:07:25;28.10;;;18.33;;
17947;SDS011;9099;47.958;11.366;2023-03-01T11:09:52;34.13;;;22.40;;
17947;SDS011;9099;47.958;11.366;2023-03-01T11:12:20;31.27;;;20.43;;
17947;SDS011;9099;47.958;11.366;2023-03-01T11:14:48;51.33;;;28.93;;
17947;SDS011;9099;47.958;11.366;2023-03-01T11:17:17;42.97;;;26.27;;
17947;SDS011;9099;47.958;11.366;2023-03-01T11:19:59;28.13;;;18.73;;
17947;SDS011;9099;47.958;11.366;2023-03-01T11:22:30;23.73;;;18.20;;
17947;SDS011;9099;47.958;11.366;2023-03-01T11:24:59;22.77;;;17.03;;
17947;SDS011;9099;47.958;11.366;2023-03-01T11:27:28;29.30;;;20.20;;
17947;SDS011;9099;47.958;11.366;2023-03-01T11:29:59;29.90;;;19.20;;
17947;SDS011;9099;47.958;11.366;2023-03-01T11:32:31;32.93;;;20.77;;
17947;SDS011;9099;47.958;11.366;2023-03-01T11:35:03;23.33;;;16.60;;
17947;SDS011;9099;47.958;11.366;2023-03-01T11:37:38;27.90;;;18.07;;
17947;SDS011;9099;47.958;11.366;2023-03-01T11:40:11;29.90;;;20.70;;
17947;SDS011;9099;47.958;11.366;2023-03-01T11:42:44;33.03;;;23.57;;
17947;SDS011;9099;47.958;11.366;2023-03-01T11:45:16;26.50;;;18.53;;
17947;SDS011;9099;47.958;11.366;2023-03-01T11:47:50;25.27;;;16.50;;
17947;SDS011;9099;47.958;11.366;2023-03-01T11:50:28;24.10;;;17.43;;
17947;SDS011;9099;47.958;11.366;2023-03-01T11:53:04;25.50;;;17.43;;
17947;SDS011;9099;47.958;11.366;2023-03-01T11:55:57;27.50;;;18.80;;
17947;SDS011;9099;47.958;11.366;2023-03-01T11:58:34;26.90;;;17.57;;
17947;SDS011;9099;47.958;11.366;2023-03-01T12:01:17;22.20;;;16.33;;
17947;SDS011;9099;47.958;11.366;2023-03-01T12:06:50;20.17;;;15.33;;
17947;SDS011;9099;47.958;11.366;2023-03-01T12:09:30;19.70;;;15.13;;
17947;SDS011;9099;47.958;11.366;2023-03-01T12:12:15;22.83;;;14.87;;
17947;SDS011;9099;47.958;11.366;2023-03-01T12:15:17;21.43;;;15.20;;
17947;SDS011;9099;47.958;11.366;2023-03-01T12:21:04;20.83;;;15.63;;
17947;SDS011;9099;47.958;11.366;2023-03-01T12:23:53;21.47;;;14.80;;
17947;SDS011;9099;47.958;11.366;2023-03-01T12:26:43;22.80;;;15.17;;
17947;SDS011;9099;47.958;11.366;2023-03-01T12:29:23;45.53;;;27.10;;
17947;SDS011;9099;47.958;11.366;2023-03-01T12:32:00;103.00;;;42.57;;
17947;SDS011;9099;47.958;11.366;2023-03-01T12:37:36;20.30;;;15.07;;
17947;SDS011;9099;47.958;11.366;2023-03-01T12:40:17;22.73;;;16.90;;
17947;SDS011;9099;47.958;11.366;2023-03-01T12:43:06;20.67;;;14.67;;
17947;SDS011;9099;47.958;11.366;2023-03-01T12:45:50;18.87;;;14.67;;
17947;SDS011;9099;47.958;11.366;2023-03-01T12:48:31;24.37;;;14.20;;
17947;SDS011;9099;47.958;11.366;2023-03-01T12:51:07;18.20;;;13.43;;
17947;SDS011;9099;47.958;11.366;2023-03-01T12:53:39;18.07;;;13.50;;
17947;SDS011;9099;47.958;11.366;2023-03-01T12:56:08;22.53;;;14.30;;
17947;SDS011;9099;47.958;11.366;2023-03-01T12:58:39;19.67;;;13.13;;
17947;SDS011;9099;47.958;11.366;2023-03-01T13:01:12;17.17;;;13.43;;
17947;SDS011;9099;47.958;11.366;2023-03-01T13:03:52;16.63;;;12.87;;
17947;SDS011;9099;47.958;11.366;2023-03-01T13:06:38;17.83;;;12.80;;
17947;SDS011;9099;47.958;11.366;2023-03-01T13:09:13;17.80;;;13.40;;
17947;SDS011;9099;47.958;11.366;2023-03-01T13:11:46;16.43;;;13.03;;
17947;SDS011;9099;47.958;11.366;2023-03-01T13:17:20;18.33;;;13.30;;
17947;SDS011;9099;47.958;11.366;2023-03-01T13:19:57;17.85;;;13.23;;
17947;SDS011;9099;47.958;11.366;2023-03-01T13:22:25;19.77;;;12.90;;
17947;SDS011;9099;47.958;11.366;2023-03-01T13:25:10;17.38;;;12.55;;
17947;SDS011;9099;47.958;11.366;2023-03-01T13:27:40;21.40;;;13.15;;
17947;SDS011;9099;47.958;11.366;2023-03-01T13:30:37;16.50;;;13.55;;
17947;SDS011;9099;47.958;11.366;2023-03-01T13:36:06;17.70;;;13.05;;
17947;SDS011;9099;47.958;11.366;2023-03-01T13:38:36;17.13;;;13.38;;
17947;SDS011;9099;47.958;11.366;2023-03-01T13:41:06;30.52;;;21.42;;
17947;SDS011;9099;47.958;11.366;2023-03-01T13:43:34;24.73;;;17.20;;
17947;SDS011;9099;47.958;11.366;2023-03-01T13:46:07;18.92;;;13.98;;
17947;SDS011;9099;47.958;11.366;2023-03-01T13:48:36;17.85;;;13.60;;
17947;SDS011;9099;47.958;11.366;2023-03-01T13:51:05;17.45;;;14.15;;
17947;SDS011;9099;47.958;11.366;2023-03-01T13:53:35;17.88;;;14.35;;
17947;SDS011;9099;47.958;11.366;2023-03-01T13:56:07;19.98;;;14.30;;
17947;SDS011;9099;47.958;11.366;2023-03-01T13:58:44;28.38;;;19.67;;
17947;SDS011;9099;47.958;11.366;2023-03-01T14:01:20;22.77;;;18.20;;
17947;SDS011;9099;47.958;11.366;2023-03-01T14:03:49;17.45;;;14.48;;
17947;SDS011;9099;47.958;11.366;2023-03-01T14:06:17;19.85;;;14.98;;
17947;SDS011;9099;47.958;11.366;2023-03-01T14:08:48;18.05;;;14.57;;
17947;SDS011;9099;47.958;11.366;2023-03-01T14:11:26;18.75;;;15.07;;
17947;SDS011;9099;47.958;11.366;2023-03-01T14:14:18;19.17;;;14.82;;
17947;SDS011;9099;47.958;11.366;2023-03-01T14:16:56;20.98;;;15.60;;
17947;SDS011;9099;47.958;11.366;2023-03-01T14:19:30;27.30;;;19.20;;
17947;SDS011;9099;47.958;11.366;2023-03-01T14:21:58;23.15;;;17.23;;
17947;SDS011;9099;47.958;11.366;2023-03-01T14:24:28;17.00;;;13.75;;
17947;SDS011;9099;47.958;11.366;2023-03-01T14:26:57;17.25;;;13.90;;
17947;SDS011;9099;47.958;11.366;2023-03-01T14:29:27;19.15;;;15.00;;
17947;SDS011;9099;47.958;11.366;2023-03-01T14:32:09;19.15;;;14.30;;
17947;SDS011;9099;47.958;11.366;2023-03-01T14:34:38;16.30;;;14.02;;
17947;SDS011;9099;47.958;11.366;2023-03-01T14:37:10;18.65;;;14.40;;
17947;SDS011;9099;47.958;11.366;2023-03-01T14:39:37;20.77;;;14.00;;
17947;SDS011;9099;47.958;11.366;2023-03-01T14:42:04;16.08;;;14.35;;
17947;SDS011;9099;47.958;11.366;2023-03-01T14:44:31;17.85;;;14.27;;
17947;SDS011;9099;47.958;11.366;2023-03-01T14:47:02;24.45;;;16.15;;
17947;SDS011;9099;47.958;11.366;2023-03-01T14:49:31;23.67;;;16.45;;
17947;SDS011;9099;47.958;11.366;2023-03-01T14:51:59;18.90;;;14.80;;
17947;SDS011;9099;47.958;11.366;2023-03-01T14:54:29;16.27;;;14.13;;
17947;SDS011;9099;47.958;11.366;2023-03-01T14:57:12;18.30;;;14.00;;